sensor_id;sensor_type;location;lat;lon;timestamp;pressure;altitude;pressure_sealevel;temperature;humidity
63204;BME280;49297;43.210;27.914;2023-01-29T00:00:19;101352.94;;;2.38;63.89
63204;BME280;49297;43.210;27.914;2023-01-29T00:02:45;101367.78;;;2.38;63.57
63204;BME280;49297;43.210;27.914;2023-01-29T00:05:12;101366.09;;;2.37;63.67
63204;BME280;49297;43.210;27.914;2023-01-29T00:07:43;101366.97;;;2.37;63.27
63204;BME280;49297;43.210;27.914;2023-01-29T00:10:10;101360.03;;;2.36;63.97
63204;BME280;49297;43.210;27.914;2023-01-29T00:12:38;101367.88;;;2.36;63.99
63204;BME280;49297;43.210;27.914;2023-01-29T00:15:04;101366.25;;;2.34;63.79
63204;BME280;49297;43.210;27.914;2023-01-29T00:17:31;101369.94;;;2.28;63.47
63204;BME280;49297;43.210;27.914;2023-01-29T00:19:59;101370.19;;;2.23;63.41
63204;BME280;49297;43.210;27.914;2023-01-29T00:22:25;101376.25;;;2.24;63.30
63204;BME280;49297;43.210;27.914;2023-01-29T00:24:52;101382.41;;;2.23;63.44
63204;BME280;49297;43.210;27.914;2023-01-29T00:27:18;101376.47;;;2.19;63.26
63204;BME280;49297;43.210;27.914;2023-01-29T00:29:44;101378.56;;;2.11;63.81
63204;BME280;49297;43.210;27.914;2023-01-29T00:32:32;101382.78;;;2.14;63.63
63204;BME280;49297;43.210;27.914;2023-01-29T00:34:57;101385.41;;;2.14;63.38
63204;BME280;49297;43.210;27.914;2023-01-29T00:37:24;101381.88;;;2.15;63.62
63204;BME280;49297;43.210;27.914;2023-01-29T00:39:50;101377.00;;;2.07;63.77
63204;BME280;49297;43.210;27.914;2023-01-29T00:42:16;101375.34;;;2.04;63.83
63204;BME280;49297;43.210;27.914;2023-01-29T00:45:01;101378.97;;;2.02;63.97
63204;BME280;49297;43.210;27.914;2023-01-29T00:47:27;101388.28;;;2.07;63.75
63204;BME280;49297;43.210;27.914;2023-01-29T00:50:02;101391.56;;;2.13;64.07
63204;BME280;49297;43.210;27.914;2023-01-29T00:52:29;101383.78;;;2.11;63.27
63204;BME280;49297;43.210;27.914;2023-01-29T00:54:56;101378.56;;;2.11;63.60
63204;BME280;49297;43.210;27.914;2023-01-29T00:57:26;101385.22;;;2.18;63.01
63204;BME280;49297;43.210;27.914;2023-01-29T00:59:54;101381.03;;;2.14;62.87
63204;BME280;49297;43.210;27.914;2023-01-29T01:02:21;101379.47;;;2.10;62.91
63204;BME280;49297;43.210;27.914;2023-01-29T01:05:07;101371.44;;;2.15;62.93
63204;BME280;49297;43.210;27.914;2023-01-29T01:07:48;101375.47;;;2.22;63.33
63204;BME280;49297;43.210;27.914;2023-01-29T01:10:23;101380.63;;;2.23;62.91
63204;BME280;49297;43.210;27.914;2023-01-29T01:12:55;101375.59;;;2.19;62.47
63204;BME280;49297;43.210;27.914;2023-01-29T01:15:24;101371.25;;;2.19;63.12
63204;BME280;49297;43.210;27.914;2023-01-29T01:17:55;101376.25;;;2.24;62.64
63204;BME280;49297;43.210;27.914;2023-01-29T01:20:23;101379.50;;;2.29;63.04
63204;BME280;49297;43.210;27.914;2023-01-29T01:22:50;101381.06;;;2.33;62.60
63204;BME280;49297;43.210;27.914;2023-01-29T01:25:17;101380.16;;;2.34;62.71
63204;BME280;49297;43.210;27.914;2023-01-29T01:27:45;101385.50;;;2.31;62.38
63204;BME280;49297;43.210;27.914;2023-01-29T01:30:14;101383.91;;;2.28;62.88
63204;BME280;49297;43.210;27.914;2023-01-29T01:32:41;101395.06;;;2.32;62.39
63204;BME280;49297;43.210;27.914;2023-01-29T01:35:09;101402.75;;;2.35;62.37
63204;BME280;49297;43.210;27.914;2023-01-29T01:37:36;101390.47;;;2.37;62.70
63204;BME280;49297;43.210;27.914;2023-01-29T01:40:12;101405.09;;;2.41;62.90
63204;BME280;49297;43.210;27.914;2023-01-29T01:42:50;101400.53;;;2.46;62.89
63204;BME280;49297;43.210;27.914;2023-01-29T01:45:25;101403.19;;;2.45;62.28
63204;BME280;49297;43.210;27.914;2023-01-29T01:48:00;101404.97;;;2.44;62.34
63204;BME280;49297;43.210;27.914;2023-01-29T01:53:06;101402.75;;;2.35;62.13
63204;BME280;49297;43.210;27.914;2023-01-29T01:55:37;101413.00;;;2.40;62.31
63204;BME280;49297;43.210;27.914;2023-01-29T01:58:12;101404.31;;;2.39;62.62
63204;BME280;49297;43.210;27.914;2023-01-29T02:00:41;101408.50;;;2.43;62.45
63204;BME280;49297;43.210;27.914;2023-01-29T02:03:11;101407.50;;;2.46;62.41
63204;BME280;49297;43.210;27.914;2023-01-29T02:06:03;101415.28;;;2.47;62.62
63204;BME280;49297;43.210;27.914;2023-01-29T02:09:05;101421.44;;;2.46;62.14
63204;BME280;49297;43.210;27.914;2023-01-29T02:11:53;101425.28;;;2.38;61.69
63204;BME280;49297;43.210;27.914;2023-01-29T02:14:19;101414.97;;;2.35;61.89
63204;BME280;49297;43.210;27.914;2023-01-29T02:16:45;101408.84;;;2.36;62.20
63204;BME280;49297;43.210;27.914;2023-01-29T02:19:38;101416.63;;;2.37;62.23
63204;BME280;49297;43.210;27.914;2023-01-29T02:28:14;101424.06;;;2.26;62.34
63204;BME280;49297;43.210;27.914;2023-01-29T02:34:17;101416.94;;;2.29;61.92
63204;BME280;49297;43.210;27.914;2023-01-29T02:44:39;101407.06;;;2.16;62.52
63204;BME280;49297;43.210;27.914;2023-01-29T02:50:29;101422.63;;;2.19;62.33
63204;BME280;49297;43.210;27.914;2023-01-29T02:53:05;101405.47;;;2.13;61.99
63204;BME280;49297;43.210;27.914;2023-01-29T02:58:13;101384.25;;;2.00;62.06
63204;BME280;49297;43.210;27.914;2023-01-29T03:00:46;101388.03;;;1.93;61.24
63204;BME280;49297;43.210;27.914;2023-01-29T03:03:23;101406.63;;;1.85;61.13
63204;BME280;49297;43.210;27.914;2023-01-29T03:06:05;101397.09;;;1.84;61.32
63204;BME280;49297;43.210;27.914;2023-01-29T03:08:42;101363.88;;;1.88;61.16
63204;BME280;49297;43.210;27.914;2023-01-29T03:11:15;101387.63;;;1.82;61.90
63204;BME280;49297;43.210;27.914;2023-01-29T03:13:51;101387.72;;;1.80;61.71
63204;BME280;49297;43.210;27.914;2023-01-29T03:16:30;101395.59;;;1.79;62.10
63204;BME280;49297;43.210;27.914;2023-01-29T03:19:07;101391.16;;;1.81;61.75
63204;BME280;49297;43.210;27.914;2023-01-29T03:21:40;101390.44;;;1.77;61.95
63204;BME280;49297;43.210;27.914;2023-01-29T03:24:43;101377.44;;;1.76;62.20
63204;BME280;49297;43.210;27.914;2023-01-29T03:27:38;101378.16;;;1.79;62.06
63204;BME280;49297;43.210;27.914;2023-01-29T03:30:26;101352.06;;;1.79;62.57
63204;BME280;49297;43.210;27.914;2023-01-29T03:33:14;101372.34;;;1.73;62.16
63204;BME280;49297;43.210;27.914;2023-01-29T03:35:56;101369.06;;;1.67;62.15
63204;BME280;49297;43.210;27.914;2023-01-29T03:38:25;101331.91;;;1.62;62.19
63204;BME280;49297;43.210;27.914;2023-01-29T03:41:06;101375.69;;;1.56;61.46
63204;BME280;49297;43.210;27.914;2023-01-29T03:46:09;101361.78;;;1.55;61.90
63204;BME280;49297;43.210;27.914;2023-01-29T03:48:39;101375.75;;;1.54;62.25
63204;BME280;49297;43.210;27.914;2023-01-29T03:51:22;101356.75;;;1.50;61.81
63204;BME280;49297;43.210;27.914;2023-01-29T03:54:04;101383.16;;;1.43;62.50
63204;BME280;49297;43.210;27.914;2023-01-29T03:59:34;101387.06;;;1.32;63.10
63204;BME280;49297;43.210;27.914;2023-01-29T04:02:12;101390.44;;;1.35;63.03
63204;BME280;49297;43.210;27.914;2023-01-29T04:04:44;101390.19;;;1.41;63.07
63204;BME280;49297;43.210;27.914;2023-01-29T04:07:20;101403.50;;;1.35;63.44
63204;BME280;49297;43.210;27.914;2023-01-29T04:09:59;101411.94;;;1.41;63.13
63204;BME280;49297;43.210;27.914;2023-01-29T04:12:35;101420.44;;;1.46;63.21
63204;BME280;49297;43.210;27.914;2023-01-29T04:15:04;101430.94;;;1.45;63.68
63204;BME280;49297;43.210;27.914;2023-01-29T04:17:38;101432.56;;;1.47;64.09
63204;BME280;49297;43.210;27.914;2023-01-29T04:20:07;101440.28;;;1.50;63.57
63204;BME280;49297;43.210;27.914;2023-01-29T04:22:36;101463.50;;;1.57;63.42
63204;BME280;49297;43.210;27.914;2023-01-29T04:25:07;101466.66;;;1.65;63.46
63204;BME280;49297;43.210;27.914;2023-01-29T04:44:23;101496.56;;;1.78;63.62
63204;BME280;49297;43.210;27.914;2023-01-29T04:49:55;101491.97;;;1.85;63.83
63204;BME280;49297;43.210;27.914;2023-01-29T04:55:08;101494.19;;;1.94;64.72
63204;BME280;49297;43.210;27.914;2023-01-29T04:57:58;101501.84;;;1.99;63.89
63204;BME280;49297;43.210;27.914;2023-01-29T05:00:32;101494.78;;;2.01;64.17
63204;BME280;49297;43.210;27.914;2023-01-29T05:03:00;101495.47;;;2.06;64.22
63204;BME280;49297;43.210;27.914;2023-01-29T05:05:29;101490.22;;;2.06;64.26
63204;BME280;49297;43.210;27.914;2023-01-29T05:07:56;101498.00;;;2.07;64.66
63204;BME280;49297;43.210;27.914;2023-01-29T05:10:24;101500.63;;;2.07;64.58
63204;BME280;49297;43.210;27.914;2023-01-29T05:13:02;101504.13;;;2.06;64.01
63204;BME280;49297;43.210;27.914;2023-01-29T05:15:46;101497.28;;;2.04;63.65
63204;BME280;49297;43.210;27.914;2023-01-29T05:18:13;101505.06;;;2.05;63.95
63204;BME280;49297;43.210;27.914;2023-01-29T05:20:42;101502.31;;;2.08;64.21
63204;BME280;49297;43.210;27.914;2023-01-29T05:23:19;101508.25;;;2.12;64.56
63204;BME280;49297;43.210;27.914;2023-01-29T05:25:47;101509.91;;;2.15;64.05
63204;BME280;49297;43.210;27.914;2023-01-29T05:28:15;101509.78;;;2.18;64.16
63204;BME280;49297;43.210;27.914;2023-01-29T05:30:50;101512.25;;;2.21;64.85
63204;BME280;49297;43.210;27.914;2023-01-29T05:35:48;101509.63;;;2.21;64.32
63204;BME280;49297;43.210;27.914;2023-01-29T05:38:15;101514.84;;;2.21;64.35
63204;BME280;49297;43.210;27.914;2023-01-29T05:40:42;101517.47;;;2.21;64.71
63204;BME280;49297;43.210;27.914;2023-01-29T05:43:23;101525.31;;;2.21;64.01
63204;BME280;49297;43.210;27.914;2023-01-29T05:45:57;101529.69;;;2.20;64.24
63204;BME280;49297;43.210;27.914;2023-01-29T05:48:25;101528.84;;;2.20;63.80
63204;BME280;49297;43.210;27.914;2023-01-29T05:50:53;101534.81;;;2.23;63.92
63204;BME280;49297;43.210;27.914;2023-01-29T05:53:19;101529.50;;;2.25;64.23
63204;BME280;49297;43.210;27.914;2023-01-29T05:55:46;101540.81;;;2.25;63.41
63204;BME280;49297;43.210;27.914;2023-01-29T05:58:13;101533.03;;;2.24;63.54
63204;BME280;49297;43.210;27.914;2023-01-29T06:00:39;101541.66;;;2.26;63.69
63204;BME280;49297;43.210;27.914;2023-01-29T06:03:06;101554.66;;;2.27;64.24
63204;BME280;49297;43.210;27.914;2023-01-29T06:05:32;101547.53;;;2.31;63.70
63204;BME280;49297;43.210;27.914;2023-01-29T06:07:58;101538.75;;;2.34;63.86
63204;BME280;49297;43.210;27.914;2023-01-29T06:10:24;101558.66;;;2.36;63.61
63204;BME280;49297;43.210;27.914;2023-01-29T06:12:51;101556.94;;;2.35;63.98
63204;BME280;49297;43.210;27.914;2023-01-29T06:15:23;101570.94;;;2.34;63.88
63204;BME280;49297;43.210;27.914;2023-01-29T06:17:55;101570.09;;;2.34;64.01
63204;BME280;49297;43.210;27.914;2023-01-29T06:20:21;101568.66;;;2.26;63.96
63204;BME280;49297;43.210;27.914;2023-01-29T06:22:56;101560.22;;;2.20;63.78
63204;BME280;49297;43.210;27.914;2023-01-29T06:25:30;101560.38;;;2.15;63.83
63204;BME280;49297;43.210;27.914;2023-01-29T06:27:56;101569.06;;;2.16;63.68
63204;BME280;49297;43.210;27.914;2023-01-29T06:30:22;101563.78;;;2.17;64.66
63204;BME280;49297;43.210;27.914;2023-01-29T06:32:51;101560.31;;;2.17;64.59
63204;BME280;49297;43.210;27.914;2023-01-29T06:35:20;101576.66;;;2.22;64.29
63204;BME280;49297;43.210;27.914;2023-01-29T06:37:46;101582.75;;;2.22;64.65
63204;BME280;49297;43.210;27.914;2023-01-29T06:40:26;101584.44;;;2.23;64.70
63204;BME280;49297;43.210;27.914;2023-01-29T06:42:53;101579.16;;;2.25;63.57
63204;BME280;49297;43.210;27.914;2023-01-29T06:45:20;101578.44;;;2.21;63.94
63204;BME280;49297;43.210;27.914;2023-01-29T06:47:46;101577.34;;;2.27;64.15
63204;BME280;49297;43.210;27.914;2023-01-29T06:50:13;101581.84;;;2.23;63.96
63204;BME280;49297;43.210;27.914;2023-01-29T06:52:41;101589.00;;;2.18;63.46
63204;BME280;49297;43.210;27.914;2023-01-29T06:55:07;101581.13;;;2.20;63.46
63204;BME280;49297;43.210;27.914;2023-01-29T06:57:34;101583.66;;;2.21;63.22
63204;BME280;49297;43.210;27.914;2023-01-29T07:00:00;101581.06;;;2.21;63.08
63204;BME280;49297;43.210;27.914;2023-01-29T07:02:27;101601.69;;;2.27;63.57
63204;BME280;49297;43.210;27.914;2023-01-29T07:04:54;101610.09;;;2.36;63.64
63204;BME280;49297;43.210;27.914;2023-01-29T07:07:20;101592.50;;;2.39;63.46
63204;BME280;49297;43.210;27.914;2023-01-29T07:09:45;101609.66;;;2.46;62.95
63204;BME280;49297;43.210;27.914;2023-01-29T07:12:12;101604.47;;;2.45;62.97
63204;BME280;49297;43.210;27.914;2023-01-29T07:14:38;101603.47;;;2.47;62.46
63204;BME280;49297;43.210;27.914;2023-01-29T07:17:05;101614.47;;;2.56;62.40
63204;BME280;49297;43.210;27.914;2023-01-29T07:19:32;101606.53;;;2.59;62.46
63204;BME280;49297;43.210;27.914;2023-01-29T07:21:58;101596.84;;;2.61;62.40
63204;BME280;49297;43.210;27.914;2023-01-29T07:24:26;101610.75;;;2.61;61.61
63204;BME280;49297;43.210;27.914;2023-01-29T07:26:58;101627.50;;;2.57;61.56
63204;BME280;49297;43.210;27.914;2023-01-29T07:29:24;101616.09;;;2.58;61.52
63204;BME280;49297;43.210;27.914;2023-01-29T07:31:54;101622.94;;;2.62;62.37
63204;BME280;49297;43.210;27.914;2023-01-29T07:34:20;101621.94;;;2.65;62.08
63204;BME280;49297;43.210;27.914;2023-01-29T07:36:47;101636.00;;;2.62;62.08
63204;BME280;49297;43.210;27.914;2023-01-29T07:39:15;101626.31;;;2.64;61.61
63204;BME280;49297;43.210;27.914;2023-01-29T07:41:41;101643.53;;;2.70;61.61
63204;BME280;49297;43.210;27.914;2023-01-29T07:44:07;101632.16;;;2.71;62.16
63204;BME280;49297;43.210;27.914;2023-01-29T07:46:34;101638.16;;;2.73;62.14
63204;BME280;49297;43.210;27.914;2023-01-29T07:49:00;101647.75;;;2.73;61.97
63204;BME280;49297;43.210;27.914;2023-01-29T07:51:26;101640.78;;;2.73;61.68
63204;BME280;49297;43.210;27.914;2023-01-29T07:53:53;101644.19;;;2.75;61.40
63204;BME280;49297;43.210;27.914;2023-01-29T07:56:21;101642.28;;;2.79;61.21
63204;BME280;49297;43.210;27.914;2023-01-29T07:58:47;101644.91;;;2.79;61.12
63204;BME280;49297;43.210;27.914;2023-01-29T08:01:13;101650.97;;;2.79;60.60
63204;BME280;49297;43.210;27.914;2023-01-29T08:03:39;101657.25;;;2.75;60.47
63204;BME280;49297;43.210;27.914;2023-01-29T08:06:05;101640.63;;;2.76;60.88
63204;BME280;49297;43.210;27.914;2023-01-29T08:08:30;101641.38;;;2.80;60.36
63204;BME280;49297;43.210;27.914;2023-01-29T08:11:00;101643.78;;;2.84;60.78
63204;BME280;49297;43.210;27.914;2023-01-29T08:13:27;101647.34;;;2.83;60.43
63204;BME280;49297;43.210;27.914;2023-01-29T08:15:53;101635.03;;;2.85;60.29
63204;BME280;49297;43.210;27.914;2023-01-29T08:18:19;101648.41;;;2.78;60.59
63204;BME280;49297;43.210;27.914;2023-01-29T08:20:51;101637.50;;;2.68;60.72
63204;BME280;49297;43.210;27.914;2023-01-29T08:23:17;101636.84;;;2.63;61.04
63204;BME280;49297;43.210;27.914;2023-01-29T08:25:43;101655.59;;;2.52;60.67
63204;BME280;49297;43.210;27.914;2023-01-29T08:28:10;101644.28;;;2.52;61.52
63204;BME280;49297;43.210;27.914;2023-01-29T08:30:37;101646.91;;;2.52;61.66
63204;BME280;49297;43.210;27.914;2023-01-29T08:33:05;101648.84;;;2.46;61.93
63204;BME280;49297;43.210;27.914;2023-01-29T08:35:32;101627.22;;;2.43;62.59
63204;BME280;49297;43.210;27.914;2023-01-29T08:38:00;101626.28;;;2.44;62.58
63204;BME280;49297;43.210;27.914;2023-01-29T08:40:28;101649.25;;;2.37;62.58
63204;BME280;49297;43.210;27.914;2023-01-29T08:43:00;101639.00;;;2.31;63.31
63204;BME280;49297;43.210;27.914;2023-01-29T08:45:28;101636.59;;;2.26;63.37
63204;BME280;49297;43.210;27.914;2023-01-29T08:47:54;101634.03;;;2.25;63.54
63204;BME280;49297;43.210;27.914;2023-01-29T08:50:20;101632.16;;;2.28;64.18
63204;BME280;49297;43.210;27.914;2023-01-29T08:52:47;101632.38;;;2.22;63.40
63204;BME280;49297;43.210;27.914;2023-01-29T08:55:13;101627.38;;;2.18;64.05
63204;BME280;49297;43.210;27.914;2023-01-29T08:57:40;101637.75;;;2.19;63.79
63204;BME280;49297;43.210;27.914;2023-01-29T09:00:07;101636.72;;;2.23;64.21
63204;BME280;49297;43.210;27.914;2023-01-29T09:02:34;101639.94;;;2.30;63.66
63204;BME280;49297;43.210;27.914;2023-01-29T09:05:01;101640.72;;;2.32;64.21
63204;BME280;49297;43.210;27.914;2023-01-29T09:07:31;101626.78;;;2.32;63.82
63204;BME280;49297;43.210;27.914;2023-01-29T09:09:57;101645.09;;;2.32;63.71
63204;BME280;49297;43.210;27.914;2023-01-29T09:12:23;101641.31;;;2.39;64.39
63204;BME280;49297;43.210;27.914;2023-01-29T09:14:50;101637.84;;;2.38;63.90
63204;BME280;49297;43.210;27.914;2023-01-29T09:17:16;101636.75;;;2.44;63.34
63204;BME280;49297;43.210;27.914;2023-01-29T09:19:42;101628.66;;;2.28;63.74
63204;BME280;49297;43.210;27.914;2023-01-29T09:22:07;101643.72;;;2.23;63.92
63204;BME280;49297;43.210;27.914;2023-01-29T09:24:35;101634.78;;;2.28;63.48
63204;BME280;49297;43.210;27.914;2023-01-29T09:27:01;101638.22;;;2.29;63.70
63204;BME280;49297;43.210;27.914;2023-01-29T09:29:28;101635.44;;;2.34;64.17
63204;BME280;49297;43.210;27.914;2023-01-29T09:32:00;101635.13;;;2.41;64.05
63204;BME280;49297;43.210;27.914;2023-01-29T09:34:26;101633.13;;;2.48;63.98
63204;BME280;49297;43.210;27.914;2023-01-29T09:36:52;101627.00;;;2.47;63.27
63204;BME280;49297;43.210;27.914;2023-01-29T09:39:19;101637.28;;;2.52;62.46
63204;BME280;49297;43.210;27.914;2023-01-29T09:47:01;101611.03;;;2.76;62.48
63204;BME280;49297;43.210;27.914;2023-01-29T09:49:36;101612.53;;;2.81;62.39
63204;BME280;49297;43.210;27.914;2023-01-29T09:52:18;101615.94;;;2.83;61.69
63204;BME280;49297;43.210;27.914;2023-01-29T09:55:27;101632.06;;;2.73;61.03
63204;BME280;49297;43.210;27.914;2023-01-29T09:57:57;101617.50;;;2.67;61.29
63204;BME280;49297;43.210;27.914;2023-01-29T10:09:03;101618.41;;;2.86;61.11
63204;BME280;49297;43.210;27.914;2023-01-29T10:23:39;101609.59;;;2.89;59.66
63204;BME280;49297;43.210;27.914;2023-01-29T10:25:46;101611.81;;;2.78;60.30
63204;BME280;49297;43.210;27.914;2023-01-29T10:28:19;101600.56;;;2.76;60.88
63204;BME280;49297;43.210;27.914;2023-01-29T10:30:50;101612.69;;;2.78;60.86
63204;BME280;49297;43.210;27.914;2023-01-29T10:33:28;101605.00;;;2.74;60.66
63204;BME280;49297;43.210;27.914;2023-01-29T10:36:02;101606.97;;;2.69;60.53
63204;BME280;49297;43.210;27.914;2023-01-29T10:41:05;101618.94;;;2.54;59.96
63204;BME280;49297;43.210;27.914;2023-01-29T10:43:53;101605.19;;;2.48;59.77
63204;BME280;49297;43.210;27.914;2023-01-29T10:49:28;101603.63;;;2.65;60.77
63204;BME280;49297;43.210;27.914;2023-01-29T10:52:08;101601.56;;;2.73;60.61
63204;BME280;49297;43.210;27.914;2023-01-29T11:00:06;101593.06;;;2.68;59.09
63204;BME280;49297;43.210;27.914;2023-01-29T11:02:36;101589.59;;;2.67;59.27
63204;BME280;49297;43.210;27.914;2023-01-29T11:11:23;101607.69;;;2.72;58.77
63204;BME280;49297;43.210;27.914;2023-01-29T11:14:08;101600.28;;;2.61;58.74
63204;BME280;49297;43.210;27.914;2023-01-29T11:16:47;101596.06;;;2.59;58.83
63204;BME280;49297;43.210;27.914;2023-01-29T11:19:47;101591.56;;;2.62;58.97
63204;BME280;49297;43.210;27.914;2023-01-29T11:22:34;101589.00;;;2.61;59.36
63204;BME280;49297;43.210;27.914;2023-01-29T11:28:46;101592.84;;;2.52;59.90
63204;BME280;49297;43.210;27.914;2023-01-29T11:31:37;101587.03;;;2.45;60.37
63204;BME280;49297;43.210;27.914;2023-01-29T11:40:35;101580.63;;;2.32;60.52
63204;BME280;49297;43.210;27.914;2023-01-29T11:45:55;101601.81;;;2.46;60.02
63204;BME280;49297;43.210;27.914;2023-01-29T11:48:29;101593.03;;;2.47;59.23
63204;BME280;49297;43.210;27.914;2023-01-29T11:50:59;101588.53;;;2.51;59.26
63204;BME280;49297;43.210;27.914;2023-01-29T11:53:39;101588.06;;;2.41;59.57
63204;BME280;49297;43.210;27.914;2023-01-29T11:58:44;101583.03;;;2.37;60.06
63204;BME280;49297;43.210;27.914;2023-01-29T12:01:12;101596.03;;;2.38;59.45
63204;BME280;49297;43.210;27.914;2023-01-29T12:03:49;101591.59;;;2.40;59.85
63204;BME280;49297;43.210;27.914;2023-01-29T12:08:57;101583.28;;;2.31;59.53
63204;BME280;49297;43.210;27.914;2023-01-29T12:11:29;101586.69;;;2.33;59.94
63204;BME280;49297;43.210;27.914;2023-01-29T12:13:59;101576.78;;;2.41;59.74
63204;BME280;49297;43.210;27.914;2023-01-29T12:20:22;101586.34;;;2.40;60.01
63204;BME280;49297;43.210;27.914;2023-01-29T12:22:58;101583.81;;;2.39;60.20
63204;BME280;49297;43.210;27.914;2023-01-29T12:34:23;101594.25;;;2.39;60.62
63204;BME280;49297;43.210;27.914;2023-01-29T12:36:58;101599.25;;;2.45;60.86
63204;BME280;49297;43.210;27.914;2023-01-29T12:39:25;101591.47;;;2.43;60.18
63204;BME280;49297;43.210;27.914;2023-01-29T12:44:47;101589.50;;;2.48;60.67
63204;BME280;49297;43.210;27.914;2023-01-29T12:47:26;101591.41;;;2.45;60.55
63204;BME280;49297;43.210;27.914;2023-01-29T12:49:56;101601.59;;;2.51;60.48
63204;BME280;49297;43.210;27.914;2023-01-29T12:52:35;101600.63;;;2.54;60.27
63204;BME280;49297;43.210;27.914;2023-01-29T12:55:17;101600.50;;;2.57;60.00
63204;BME280;49297;43.210;27.914;2023-01-29T12:57:55;101597.34;;;2.48;59.12
63204;BME280;49297;43.210;27.914;2023-01-29T13:00:34;101603.69;;;2.43;59.43
63204;BME280;49297;43.210;27.914;2023-01-29T13:03:28;101598.97;;;2.31;60.37
63204;BME280;49297;43.210;27.914;2023-01-29T13:06:02;101608.63;;;2.28;60.26
63204;BME280;49297;43.210;27.914;2023-01-29T13:08:41;101608.59;;;2.30;60.76
63204;BME280;49297;43.210;27.914;2023-01-29T13:11:16;101614.38;;;2.37;61.37
63204;BME280;49297;43.210;27.914;2023-01-29T13:13:53;101610.66;;;2.42;60.86
63204;BME280;49297;43.210;27.914;2023-01-29T13:16:26;101619.22;;;2.46;61.22
63204;BME280;49297;43.210;27.914;2023-01-29T13:21:45;101626.13;;;2.48;60.26
63204;BME280;49297;43.210;27.914;2023-01-29T13:24:16;101626.91;;;2.51;60.21
63204;BME280;49297;43.210;27.914;2023-01-29T13:26:49;101619.84;;;2.53;60.63
63204;BME280;49297;43.210;27.914;2023-01-29T13:29:27;101629.28;;;2.57;59.98
63204;BME280;49297;43.210;27.914;2023-01-29T13:32:02;101633.56;;;2.58;59.60
63204;BME280;49297;43.210;27.914;2023-01-29T13:34:42;101636.97;;;2.60;59.85
63204;BME280;49297;43.210;27.914;2023-01-29T13:37:15;101635.72;;;2.69;59.75
63204;BME280;49297;43.210;27.914;2023-01-29T13:39:49;101638.00;;;2.76;60.08
63204;BME280;49297;43.210;27.914;2023-01-29T13:42:19;101655.25;;;2.82;60.06
63204;BME280;49297;43.210;27.914;2023-01-29T13:44:51;101644.84;;;2.80;59.27
63204;BME280;49297;43.210;27.914;2023-01-29T13:47:27;101633.16;;;2.89;59.06
63204;BME280;49297;43.210;27.914;2023-01-29T13:50:40;101639.34;;;2.86;58.16
63204;BME280;49297;43.210;27.914;2023-01-29T13:53:26;101643.53;;;2.91;57.76
63204;BME280;49297;43.210;27.914;2023-01-29T13:55:54;101645.16;;;2.73;57.11
63204;BME280;49297;43.210;27.914;2023-01-29T14:01:09;101637.13;;;2.77;57.52
63204;BME280;49297;43.210;27.914;2023-01-29T14:03:45;101637.13;;;2.77;57.22
63204;BME280;49297;43.210;27.914;2023-01-29T14:06:41;101643.91;;;2.81;57.24
63204;BME280;49297;43.210;27.914;2023-01-29T14:09:30;101639.56;;;2.82;56.42
63204;BME280;49297;43.210;27.914;2023-01-29T14:11:58;101639.84;;;2.74;56.01
63204;BME280;49297;43.210;27.914;2023-01-29T14:14:58;101641.69;;;2.72;56.66
63204;BME280;49297;43.210;27.914;2023-01-29T14:17:26;101648.75;;;2.70;56.53
63204;BME280;49297;43.210;27.914;2023-01-29T14:20:02;101648.81;;;2.69;56.41
63204;BME280;49297;43.210;27.914;2023-01-29T14:22:29;101643.41;;;2.73;56.46
63204;BME280;49297;43.210;27.914;2023-01-29T14:25:00;101646.00;;;2.73;56.84
63204;BME280;49297;43.210;27.914;2023-01-29T14:27:28;101655.38;;;2.79;56.64
63204;BME280;49297;43.210;27.914;2023-01-29T14:30:06;101652.09;;;2.74;56.69
63204;BME280;49297;43.210;27.914;2023-01-29T14:32:45;101653.81;;;2.75;55.99
63204;BME280;49297;43.210;27.914;2023-01-29T14:35:24;101659.94;;;2.74;57.24
63204;BME280;49297;43.210;27.914;2023-01-29T14:37:55;101655.53;;;2.74;56.64
63204;BME280;49297;43.210;27.914;2023-01-29T14:40:24;101661.66;;;2.75;57.24
63204;BME280;49297;43.210;27.914;2023-01-29T14:56:16;101671.06;;;2.79;56.76
63204;BME280;49297;43.210;27.914;2023-01-29T15:01:35;101671.84;;;2.81;57.54
63204;BME280;49297;43.210;27.914;2023-01-29T15:04:14;101670.94;;;2.82;57.14
63204;BME280;49297;43.210;27.914;2023-01-29T15:06:58;101661.56;;;2.76;57.19
63204;BME280;49297;43.210;27.914;2023-01-29T15:09:45;101669.56;;;2.73;57.60
63204;BME280;49297;43.210;27.914;2023-01-29T15:12:53;101666.00;;;2.74;57.60
63204;BME280;49297;43.210;27.914;2023-01-29T15:15:34;101669.34;;;2.78;58.02
63204;BME280;49297;43.210;27.914;2023-01-29T15:18:11;101671.25;;;2.74;57.90
63204;BME280;49297;43.210;27.914;2023-01-29T15:20:40;101669.63;;;2.72;57.96
63204;BME280;49297;43.210;27.914;2023-01-29T15:25:52;101674.50;;;2.79;57.67
63204;BME280;49297;43.210;27.914;2023-01-29T15:28:19;101674.41;;;2.82;57.66
63204;BME280;49297;43.210;27.914;2023-01-29T15:30:52;101682.19;;;2.84;58.04
63204;BME280;49297;43.210;27.914;2023-01-29T15:33:19;101686.56;;;2.83;57.50
63204;BME280;49297;43.210;27.914;2023-01-29T16:06:46;101710.97;;;2.62;58.91
63204;BME280;49297;43.210;27.914;2023-01-29T16:09:19;101715.41;;;2.60;58.71
63204;BME280;49297;43.210;27.914;2023-01-29T16:22:36;101719.63;;;2.64;59.31
63204;BME280;49297;43.210;27.914;2023-01-29T16:25:46;101727.53;;;2.62;59.28
63204;BME280;49297;43.210;27.914;2023-01-29T16:28:22;101726.59;;;2.63;58.50
63204;BME280;49297;43.210;27.914;2023-01-29T16:30:54;101734.38;;;2.65;59.58
63204;BME280;49297;43.210;27.914;2023-01-29T16:33:58;101736.94;;;2.66;59.29
63204;BME280;49297;43.210;27.914;2023-01-29T16:44:00;101724.91;;;2.62;59.65